createdAt,value
2022-12-09T00:01:30.179Z,98829.28
2022-12-09T00:03:58.136Z,98826.75
2022-12-09T00:06:28.162Z,98824.53
2022-12-09T00:08:58.746Z,98822.88
2022-12-09T00:11:27.149Z,98819.69
2022-12-09T00:13:58.055Z,98821.34
2022-12-09T00:16:26.692Z,98818.06
2022-12-09T00:18:54.792Z,98823.41
2022-12-09T00:21:28.112Z,98824.25
2022-12-09T00:23:58.668Z,98824.13
2022-12-09T00:26:28.114Z,98827.44
2022-12-09T00:28:57.783Z,98832.00
2022-12-09T00:31:27.122Z,98821.41
2022-12-09T00:33:58.017Z,98818.69
2022-12-09T00:36:25.810Z,98814.16
2022-12-09T00:38:55.041Z,98814.44
2022-12-09T00:41:24.523Z,98812.78
2022-12-09T00:43:52.541Z,98810.88
2022-12-09T00:46:20.227Z,98810.88
2022-12-09T00:48:48.290Z,98808.66
2022-12-09T00:51:19.033Z,98800.16
2022-12-09T00:53:47.416Z,98807.72
2022-12-09T00:56:15.408Z,98799.75
2022-12-09T00:58:44.548Z,98806.88
2022-12-09T01:01:12.384Z,98809.47
2022-12-09T01:03:40.509Z,98806.63
2022-12-09T01:06:10.161Z,98807.84
2022-12-09T01:08:39.346Z,98804.69
2022-12-09T01:11:11.825Z,98807.28
2022-12-09T01:13:40.799Z,98805.91
2022-12-09T01:16:16.703Z,98808.41
2022-12-09T01:18:45.015Z,98804.56
2022-12-09T01:21:12.808Z,98805.09
2022-12-09T01:23:40.805Z,98813.34
2022-12-09T01:26:09.185Z,98810.31
2022-12-09T01:28:39.657Z,98807.56
2022-12-09T01:31:09.499Z,98805.66
2022-12-09T01:33:38.560Z,98805.38
2022-12-09T01:36:11.211Z,98807.31
2022-12-09T01:38:38.961Z,98808.81
2022-12-09T01:41:07.165Z,98805.38
2022-12-09T01:43:35.064Z,98802.91
2022-12-09T01:46:03.294Z,98803.44
2022-12-09T01:48:34.362Z,98808.66
2022-12-09T01:51:10.265Z,98804.81
2022-12-09T01:53:40.683Z,98797.41
2022-12-09T01:56:12.689Z,98797.41
2022-12-09T01:58:40.434Z,98800.41
2022-12-09T02:01:08.508Z,98796.53
2022-12-09T02:03:36.314Z,98790.59
2022-12-09T02:06:05.722Z,98795.34
2022-12-09T02:08:33.409Z,98796.63
2022-12-09T02:11:12.855Z,98794.09
2022-12-09T02:13:48.494Z,98785.97
2022-12-09T02:16:20.858Z,98770.34
2022-12-09T02:18:56.132Z,98780.72
2022-12-09T02:21:29.698Z,98778.78
2022-12-09T02:24:04.753Z,98778.19
2022-12-09T02:26:41.439Z,98780.06
2022-12-09T02:29:42.325Z,98783.63
2022-12-09T02:32:38.423Z,98774.03
2022-12-09T02:35:13.547Z,98775.13
2022-12-09T02:37:45.664Z,98768.72
2022-12-09T02:40:19.468Z,98774.50
2022-12-09T02:42:50.165Z,98770.44
2022-12-09T02:45:21.053Z,98766.19
2022-12-09T02:47:52.767Z,98759.09
2022-12-09T02:50:26.586Z,98759.84
2022-12-09T02:52:56.318Z,98754.41
2022-12-09T02:55:24.418Z,98751.38
2022-12-09T02:57:57.223Z,98750.28
2022-12-09T03:00:25.138Z,98743.09
2022-12-09T03:02:57.829Z,98748.31
2022-12-09T03:05:38.829Z,98739.50
2022-12-09T03:08:15.239Z,98740.47
2022-12-09T03:10:50.803Z,98738.59
2022-12-09T03:13:27.292Z,98733.28
2022-12-09T03:16:00.205Z,98733.69
2022-12-09T03:18:31.323Z,98730.97
2022-12-09T03:21:03.106Z,98726.25
2022-12-09T03:23:32.767Z,98728.53
2022-12-09T03:26:03.401Z,98720.97
2022-12-09T03:28:35.948Z,98717.69
2022-12-09T03:31:08.556Z,98715.03
2022-12-09T03:33:36.418Z,98718.16
2022-12-09T03:36:10.726Z,98717.69
2022-12-09T03:38:41.637Z,98713.28
2022-12-09T03:41:17.849Z,98712.53
2022-12-09T03:43:53.072Z,98706.66
2022-12-09T03:46:22.146Z,98706.06
2022-12-09T03:48:50.802Z,98703.63
2022-12-09T03:51:23.848Z,98704.75
2022-12-09T03:53:57.308Z,98711.78
2022-12-09T03:56:29.379Z,98710.44
2022-12-09T03:59:00.687Z,98706.56
2022-12-09T04:01:30.411Z,98709.31
2022-12-09T04:03:58.591Z,98712.03
2022-12-09T04:06:27.886Z,98712.19
2022-12-09T04:08:59.431Z,98715.47
2022-12-09T04:11:30.185Z,98719.72
2022-12-09T04:13:57.895Z,98706.38
2022-12-09T04:16:25.967Z,98710.75
2022-12-09T04:18:53.680Z,98703.63
2022-12-09T04:21:21.413Z,98708.28
2022-12-09T04:23:50.325Z,98706.72
2022-12-09T04:26:20.715Z,98700.59
2022-12-09T04:28:48.761Z,98707.81
2022-12-09T04:31:18.936Z,98697.88
2022-12-09T04:33:47.521Z,98696.84
2022-12-09T04:36:18.678Z,98695.69
2022-12-09T04:38:47.223Z,98693.22
2022-12-09T04:41:16.960Z,98700.38
2022-12-09T04:43:44.749Z,98693.78
2022-12-09T04:46:14.409Z,98689.69
2022-12-09T04:48:42.509Z,98692.53
2022-12-09T04:51:11.365Z,98690.97
2022-12-09T04:53:39.465Z,98678.16
2022-12-09T04:56:10.061Z,98680.34
2022-12-09T04:58:39.679Z,98670.91
2022-12-09T05:01:08.297Z,98668.59
2022-12-09T05:03:36.771Z,98671.13
2022-12-09T05:06:05.759Z,98659.59
2022-12-09T05:08:34.152Z,98667.50
2022-12-09T05:11:02.312Z,98651.19
2022-12-09T05:13:30.910Z,98660.16
2022-12-09T05:16:04.251Z,98656.72
2022-12-09T05:18:32.927Z,98647.03
2022-12-09T05:21:00.678Z,98647.75
2022-12-09T05:23:28.701Z,98644.16
2022-12-09T05:25:56.626Z,98638.38
2022-12-09T05:28:24.727Z,98639.03
2022-12-09T05:30:52.621Z,98631.09
2022-12-09T05:33:21.806Z,98628.81
2022-12-09T05:35:53.046Z,98627.41
2022-12-09T05:38:21.887Z,98626.28
2022-12-09T05:40:49.821Z,98626.28
2022-12-09T05:43:17.823Z,98625.06
2022-12-09T05:45:46.082Z,98632.72
2022-12-09T05:48:14.048Z,98624.31
2022-12-09T05:50:43.392Z,98620.34
2022-12-09T05:53:11.333Z,98626.91
2022-12-09T05:55:42.341Z,98621.84
2022-12-09T05:58:10.502Z,98629.34
2022-12-09T06:00:38.163Z,98633.69
2022-12-09T06:03:06.159Z,98633.00
2022-12-09T06:05:34.526Z,98634.00
2022-12-09T06:08:06.879Z,98631.41
2022-12-09T06:10:35.628Z,98621.78
2022-12-09T06:13:03.679Z,98628.16
2022-12-09T06:15:33.664Z,98628.56
2022-12-09T06:18:02.067Z,98634.28
2022-12-09T06:20:29.996Z,98636.41
2022-12-09T06:22:58.232Z,98640.66
2022-12-09T06:25:27.369Z,98636.44
2022-12-09T06:27:55.125Z,98635.94
2022-12-09T06:30:23.395Z,98637.28
2022-12-09T06:32:51.161Z,98637.44
2022-12-09T06:35:19.040Z,98642.63
2022-12-09T06:37:47.067Z,98640.91
2022-12-09T06:40:15.115Z,98636.34
2022-12-09T06:42:44.503Z,98639.63
2022-12-09T06:45:13.053Z,98636.34
2022-12-09T06:47:41.333Z,98639.53
2022-12-09T06:50:10.575Z,98637.44
2022-12-09T06:52:40.063Z,98635.31
2022-12-09T06:55:10.040Z,98638.38
2022-12-09T06:57:38.211Z,98638.59
2022-12-09T07:00:09.111Z,98640.03
2022-12-09T07:02:37.630Z,98631.53
2022-12-09T07:05:07.600Z,98641.97
2022-12-09T07:07:36.222Z,98641.00
2022-12-09T07:10:04.990Z,98637.78
2022-12-09T07:12:32.849Z,98640.53
2022-12-09T07:15:00.728Z,98640.88
2022-12-09T07:17:29.800Z,98638.88
2022-12-09T07:20:03.347Z,98640.38
2022-12-09T07:22:34.913Z,98635.66
2022-12-09T07:25:02.829Z,98638.88
2022-12-09T07:27:30.990Z,98636.34
2022-12-09T07:29:59.112Z,98629.75
2022-12-09T07:32:27.312Z,98633.06
2022-12-09T07:34:56.513Z,98630.81
2022-12-09T07:37:24.505Z,98619.88
2022-12-09T07:39:52.125Z,98627.22
2022-12-09T07:42:19.794Z,98616.56
2022-12-09T07:44:49.147Z,98621.38
2022-12-09T07:47:17.141Z,98622.06
2022-12-09T07:49:45.307Z,98617.66
2022-12-09T07:52:14.632Z,98621.56
2022-12-09T07:54:42.168Z,98621.25
2022-12-09T07:57:10.768Z,98627.03
2022-12-09T07:59:38.566Z,98623.06
2022-12-09T08:02:06.976Z,98619.75
2022-12-09T08:04:37.652Z,98619.47
2022-12-09T08:07:05.599Z,98626.94
2022-12-09T08:09:35.089Z,98616.72
2022-12-09T08:12:04.447Z,98617.34
2022-12-09T08:14:32.927Z,98613.78
2022-12-09T08:17:00.742Z,98609.03
2022-12-09T08:19:28.912Z,98616.72
2022-12-09T08:21:57.425Z,98615.06
2022-12-09T08:24:25.433Z,98606.81
2022-12-09T08:26:55.036Z,98611.28
2022-12-09T08:29:23.044Z,98608.69
2022-12-09T08:31:51.326Z,98605.25
2022-12-09T08:34:19.800Z,98607.09
2022-12-09T08:36:47.735Z,98600.63
2022-12-09T08:39:16.298Z,98599.16
2022-12-09T08:41:44.783Z,98606.56
2022-12-09T08:44:16.254Z,98595.25
2022-12-09T08:46:46.379Z,98598.66
2022-12-09T08:49:18.060Z,98595.59
2022-12-09T08:51:47.506Z,98594.66
2022-12-09T08:54:15.953Z,98591.81
2022-12-09T08:56:45.574Z,98598.16
2022-12-09T08:59:15.301Z,98594.06
2022-12-09T09:01:43.125Z,98593.91
2022-12-09T09:04:13.409Z,98584.88
2022-12-09T09:06:43.516Z,98583.03
2022-12-09T09:09:13.360Z,98589.50
2022-12-09T09:11:42.088Z,98583.09
2022-12-09T09:14:12.433Z,98586.31
2022-12-09T09:16:44.077Z,98585.84
2022-12-09T09:19:17.571Z,98588.41
2022-12-09T09:21:45.755Z,98587.59
2022-12-09T09:24:16.242Z,98581.81
2022-12-09T09:26:44.946Z,98578.88
2022-12-09T09:29:13.692Z,98571.78
2022-12-09T09:31:43.122Z,98582.81
2022-12-09T09:34:11.688Z,98582.28
2022-12-09T09:36:41.529Z,98578.31
2022-12-09T09:39:09.809Z,98574.81
2022-12-09T09:41:45.489Z,98578.06
2022-12-09T09:44:20.562Z,98581.41
2022-12-09T09:46:51.148Z,98573.03
2022-12-09T09:49:25.712Z,98578.94
2022-12-09T09:51:54.235Z,98568.03
2022-12-09T09:54:22.130Z,98563.81
2022-12-09T09:56:55.436Z,98565.38
2022-12-09T09:59:32.623Z,98561.72
2022-12-09T10:02:18.293Z,98565.50
2022-12-09T10:04:59.190Z,98564.53
2022-12-09T10:07:33.378Z,98568.22
2022-12-09T10:10:12.654Z,98565.97
2022-12-09T10:12:50.672Z,98561.41
2022-12-09T10:15:25.009Z,98557.00
2022-12-09T10:17:56.362Z,98548.72
2022-12-09T10:20:26.999Z,98553.03
2022-12-09T10:23:00.938Z,98549.03
2022-12-09T10:25:31.275Z,98550.78
2022-12-09T10:28:06.636Z,98549.16
2022-12-09T10:30:41.805Z,98538.94
2022-12-09T10:33:14.790Z,98535.94
2022-12-09T10:35:43.375Z,98530.06
2022-12-09T10:38:13.350Z,98531.81
2022-12-09T10:40:55.108Z,98533.94
2022-12-09T10:43:38.848Z,98529.94
2022-12-09T10:46:19.655Z,98531.97
2022-12-09T10:48:57.539Z,98532.22
2022-12-09T10:51:29.183Z,98525.13
2022-12-09T10:54:01.009Z,98533.47
2022-12-09T10:56:31.540Z,98524.19
2022-12-09T10:59:20.370Z,98529.63
2022-12-09T11:01:50.675Z,98527.66
2022-12-09T11:04:25.230Z,98517.16
2022-12-09T11:06:59.313Z,98520.22
2022-12-09T11:09:30.215Z,98520.50
2022-12-09T11:12:00.032Z,98523.50
2022-12-09T11:14:32.837Z,98518.72
2022-12-09T11:17:14.457Z,98513.41
2022-12-09T11:19:46.335Z,98518.22
2022-12-09T11:22:23.290Z,98516.56
2022-12-09T11:24:53.648Z,98505.84
2022-12-09T11:27:31.034Z,98505.53
2022-12-09T11:30:13.168Z,98500.31
2022-12-09T11:32:56.962Z,98496.41
2022-12-09T11:35:32.270Z,98503.94
2022-12-09T11:38:04.326Z,98491.88
2022-12-09T11:40:33.482Z,98492.75
2022-12-09T11:43:01.148Z,98487.63
2022-12-09T11:45:31.880Z,98492.59
2022-12-09T11:48:27.701Z,98482.84
2022-12-09T11:50:58.115Z,98482.34
2022-12-09T11:53:29.033Z,98488.44
2022-12-09T11:56:01.371Z,98481.81
2022-12-09T11:58:36.168Z,98484.91
2022-12-09T12:01:10.267Z,98489.59
2022-12-09T12:03:42.025Z,98485.31
2022-12-09T12:06:17.331Z,98477.94
2022-12-09T12:08:50.579Z,98482.19
2022-12-09T12:11:22.023Z,98486.63
2022-12-09T12:13:51.130Z,98483.91
2022-12-09T12:16:23.500Z,98481.78
2022-12-09T12:18:54.622Z,98485.69
2022-12-09T12:21:55.228Z,98479.56
2022-12-09T12:24:37.870Z,98485.16
2022-12-09T12:27:22.490Z,98487.53
2022-12-09T12:29:57.286Z,98488.44
2022-12-09T12:32:34.336Z,98483.78
2022-12-09T12:35:22.924Z,98478.50
2022-12-09T12:38:05.566Z,98484.75
2022-12-09T12:40:40.824Z,98489.94
2022-12-09T12:43:42.284Z,98481.47
2022-12-09T12:46:29.509Z,98487.19
2022-12-09T12:49:16.886Z,98485.22
2022-12-09T12:51:59.635Z,98483.63
2022-12-09T12:54:40.852Z,98481.47
2022-12-09T12:57:17.912Z,98478.25
2022-12-09T12:59:54.575Z,98489.69
2022-12-09T13:02:38.495Z,98481.97
2022-12-09T13:05:16.671Z,98476.53
2022-12-09T13:07:49.225Z,98476.19
2022-12-09T13:10:23.306Z,98471.72
2022-12-09T13:12:58.179Z,98476.88
2022-12-09T13:15:32.632Z,98473.97
2022-12-09T13:18:07.225Z,98473.22
2022-12-09T13:20:43.183Z,98471.72
2022-12-09T13:23:21.915Z,98466.78
2022-12-09T13:26:02.802Z,98473.28
2022-12-09T13:28:38.063Z,98469.44
2022-12-09T13:31:09.899Z,98459.75
2022-12-09T13:33:48.821Z,98466.84
2022-12-09T13:36:20.947Z,98465.59
2022-12-09T13:38:49.292Z,98463.81
2022-12-09T13:41:58.777Z,98473.44
2022-12-09T13:44:32.187Z,98473.91
2022-12-09T13:47:24.000Z,98469.13
2022-12-09T13:49:57.929Z,98468.34
2022-12-09T13:52:46.203Z,98458.88
2022-12-09T13:55:39.482Z,98457.81
2022-12-09T13:58:54.470Z,98458.16
2022-12-09T14:01:26.562Z,98454.31
2022-12-09T14:04:02.720Z,98454.78
2022-12-09T14:06:33.535Z,98458.13
2022-12-09T14:09:04.710Z,98456.75
2022-12-09T14:11:47.058Z,98455.59
2022-12-09T14:14:58.492Z,98467.22
2022-12-09T14:18:02.267Z,98461.38
2022-12-09T14:20:36.335Z,98461.44
2022-12-09T14:23:17.872Z,98470.00
2022-12-09T14:26:05.761Z,98463.38
2022-12-09T14:29:00.363Z,98466.91
2022-12-09T14:31:50.830Z,98469.09
2022-12-09T14:34:44.584Z,98475.34
2022-12-09T14:37:31.459Z,98484.53
2022-12-09T14:40:06.717Z,98480.09
2022-12-09T14:42:44.733Z,98487.09
2022-12-09T14:45:22.876Z,98481.59
2022-12-09T14:47:50.504Z,98487.31
2022-12-09T14:50:22.366Z,98497.31
2022-12-09T14:52:52.496Z,98496.59
2022-12-09T14:55:23.199Z,98508.44
2022-12-09T14:57:52.504Z,98512.75
2022-12-09T15:00:30.488Z,98505.75
2022-12-09T15:05:56.844Z,98508.03
2022-12-09T15:08:32.613Z,98509.19
2022-12-09T15:11:01.684Z,98524.16
2022-12-09T15:13:29.345Z,98528.91
2022-12-09T15:15:57.211Z,98528.78
2022-12-09T15:18:26.284Z,98520.53
2022-12-09T15:20:57.664Z,98522.53
2022-12-09T15:23:30.708Z,98521.00
2022-12-09T15:26:00.446Z,98514.50
2022-12-09T15:28:30.180Z,98526.06
2022-12-09T15:31:00.161Z,98535.00
2022-12-09T15:33:30.084Z,98536.63
2022-12-09T15:36:02.158Z,98533.28
2022-12-09T15:38:40.533Z,98540.41
2022-12-09T15:41:28.148Z,98542.97
2022-12-09T15:44:01.284Z,98534.38
2022-12-09T15:46:31.023Z,98535.91
2022-12-09T15:48:59.934Z,98538.94
2022-12-09T15:51:29.938Z,98542.69
2022-12-09T15:54:01.494Z,98544.06
2022-12-09T15:56:33.651Z,98551.59
2022-12-09T15:59:07.453Z,98546.94
2022-12-09T16:01:35.725Z,98552.75
2022-12-09T16:04:06.732Z,98549.03
2022-12-09T16:06:37.899Z,98545.22
2022-12-09T16:09:13.781Z,98547.31
2022-12-09T16:11:44.268Z,98547.16
2022-12-09T16:14:12.715Z,98548.56
2022-12-09T16:16:45.205Z,98549.81
2022-12-09T16:19:27.164Z,98547.22
2022-12-09T16:21:58.786Z,98547.31
2022-12-09T16:24:38.944Z,98547.56
2022-12-09T16:27:19.862Z,98552.06
2022-12-09T16:29:50.965Z,98548.56
2022-12-09T16:32:25.165Z,98550.06
2022-12-09T16:34:55.048Z,98547.97
2022-12-09T16:37:30.076Z,98536.56
2022-12-09T16:39:58.605Z,98546.50
2022-12-09T16:42:30.294Z,98545.91
2022-12-09T16:45:21.044Z,98543.88
2022-12-09T16:47:49.135Z,98538.50
2022-12-09T16:50:16.935Z,98545.13
2022-12-09T16:52:45.907Z,98547.31
2022-12-09T16:55:22.225Z,98544.53
2022-12-09T16:57:50.604Z,98551.63
2022-12-09T17:00:19.165Z,98554.16
2022-12-09T17:02:52.231Z,98554.09
2022-12-09T17:05:19.962Z,98548.13
2022-12-09T17:07:49.114Z,98542.28
2022-12-09T17:10:17.842Z,98547.13
2022-12-09T17:12:45.953Z,98548.06
2022-12-09T17:15:15.519Z,98546.72
2022-12-09T17:17:48.267Z,98555.22
2022-12-09T17:20:16.636Z,98559.59
2022-12-09T17:22:44.286Z,98560.28
2022-12-09T17:25:13.506Z,98559.91
2022-12-09T17:27:41.038Z,98554.97
2022-12-09T17:30:10.006Z,98556.41
2022-12-09T17:32:37.586Z,98560.19
2022-12-09T17:35:12.347Z,98567.06
2022-12-09T17:37:40.643Z,98575.88
2022-12-09T17:40:09.254Z,98574.88
2022-12-09T17:42:38.394Z,98566.84
2022-12-09T17:45:06.977Z,98579.44
2022-12-09T17:47:34.961Z,98578.44
2022-12-09T17:50:02.538Z,98571.84
2022-12-09T17:52:30.076Z,98578.22
2022-12-09T17:54:57.670Z,98579.63
2022-12-09T17:57:25.215Z,98579.84
2022-12-09T17:59:54.119Z,98583.06
2022-12-09T18:02:21.783Z,98587.56
2022-12-09T18:04:49.561Z,98587.88
2022-12-09T18:07:17.188Z,98592.97
2022-12-09T18:09:49.904Z,98596.94
2022-12-09T18:12:22.442Z,98601.94
2022-12-09T18:14:50.008Z,98598.78
2022-12-09T18:17:19.033Z,98594.53
2022-12-09T18:19:46.607Z,98587.28
2022-12-09T18:22:14.219Z,98589.47
2022-12-09T18:24:41.837Z,98589.66
2022-12-09T18:27:09.463Z,98584.47
2022-12-09T18:29:37.151Z,98590.28
2022-12-09T18:32:05.112Z,98593.94
2022-12-09T18:34:35.583Z,98601.63
2022-12-09T18:37:03.790Z,98602.22
2022-12-09T18:39:31.450Z,98596.00
2022-12-09T18:41:59.179Z,98600.31
2022-12-09T18:44:26.842Z,98607.59
2022-12-09T18:46:54.629Z,98600.78
2022-12-09T18:49:23.950Z,98605.72
2022-12-09T18:51:54.208Z,98611.44
2022-12-09T18:54:23.743Z,98607.81
2022-12-09T18:56:51.541Z,98607.03
2022-12-09T18:59:20.584Z,98620.22
2022-12-09T19:01:49.527Z,98618.25
2022-12-09T19:04:19.142Z,98621.44
2022-12-09T19:06:48.828Z,98625.00
2022-12-09T19:09:19.393Z,98622.25
2022-12-09T19:11:49.081Z,98628.31
2022-12-09T19:14:18.395Z,98622.41
2022-12-09T19:16:47.171Z,98623.22
2022-12-09T19:19:16.673Z,98621.53
2022-12-09T19:21:45.865Z,98622.91
2022-12-09T19:24:15.664Z,98619.16
2022-12-09T19:26:45.535Z,98628.69
2022-12-09T19:29:14.967Z,98630.06
2022-12-09T19:31:44.570Z,98627.91
2022-12-09T19:34:14.954Z,98628.53
2022-12-09T19:36:43.649Z,98627.66
2022-12-09T19:39:12.769Z,98627.69
2022-12-09T19:41:41.538Z,98633.31
2022-12-09T19:44:11.985Z,98628.47
2022-12-09T19:46:40.642Z,98633.41
2022-12-09T19:49:08.759Z,98633.69
2022-12-09T19:51:36.459Z,98634.13
2022-12-09T19:54:04.467Z,98637.31
2022-12-09T19:56:32.446Z,98633.78
2022-12-09T19:59:00.656Z,98647.25
2022-12-09T20:01:32.469Z,98642.56
2022-12-09T20:04:19.007Z,98642.41
2022-12-09T20:06:51.566Z,98636.03
2022-12-09T20:09:24.412Z,98647.31
2022-12-09T20:11:53.123Z,98646.13
2022-12-09T20:14:21.160Z,98644.56
2022-12-09T20:16:50.536Z,98654.19
2022-12-09T20:19:19.758Z,98659.03
2022-12-09T20:21:47.619Z,98656.91
2022-12-09T20:24:15.586Z,98657.00
2022-12-09T20:26:44.385Z,98657.91
2022-12-09T20:29:12.677Z,98656.28
2022-12-09T20:31:41.577Z,98649.91
2022-12-09T20:34:14.751Z,98661.34
2022-12-09T20:36:44.848Z,98656.22
2022-12-09T20:39:15.111Z,98662.03
2022-12-09T20:41:44.519Z,98664.53
2022-12-09T20:44:13.901Z,98666.28
2022-12-09T20:46:45.373Z,98673.59
2022-12-09T20:49:14.668Z,98673.59
2022-12-09T20:51:45.297Z,98668.66
2022-12-09T20:54:14.403Z,98677.84
2022-12-09T20:56:42.472Z,98681.97
2022-12-09T20:59:11.661Z,98679.69
2022-12-09T21:01:39.685Z,98686.75
2022-12-09T21:04:08.443Z,98678.22
2022-12-09T21:06:40.031Z,98676.00
2022-12-09T21:09:11.475Z,98676.44
2022-12-09T21:11:39.787Z,98679.06
2022-12-09T21:14:08.737Z,98682.09
2022-12-09T21:16:39.652Z,98682.81
2022-12-09T21:19:10.279Z,98684.53
2022-12-09T21:21:41.319Z,98688.66
2022-12-09T21:24:11.044Z,98692.53
2022-12-09T21:26:38.983Z,98693.75
2022-12-09T21:29:06.695Z,98687.84
2022-12-09T21:31:36.254Z,98689.09
2022-12-09T21:34:06.340Z,98697.84
2022-12-09T21:36:35.556Z,98686.22
2022-12-09T21:39:05.788Z,98688.38
2022-12-09T21:41:35.608Z,98686.66
2022-12-09T21:44:04.240Z,98694.75
2022-12-09T21:46:33.760Z,98689.25
2022-12-09T21:49:04.247Z,98694.84
2022-12-09T21:51:32.833Z,98686.22
2022-12-09T21:54:00.750Z,98685.56
2022-12-09T21:56:32.653Z,98681.56
2022-12-09T21:59:00.902Z,98678.91
2022-12-09T22:01:31.054Z,98683.19
2022-12-09T22:04:00.252Z,98688.13
2022-12-09T22:06:28.774Z,98680.31
2022-12-09T22:08:58.372Z,98691.25
2022-12-09T22:11:28.815Z,98689.91
2022-12-09T22:13:59.900Z,98688.00
2022-12-09T22:16:29.759Z,98695.03
2022-12-09T22:18:58.972Z,98700.47
2022-12-09T22:21:29.370Z,98694.97
2022-12-09T22:23:59.328Z,98697.97
2022-12-09T22:26:27.547Z,98702.09
2022-12-09T22:28:55.491Z,98693.63
2022-12-09T22:31:27.293Z,98701.59
2022-12-09T22:33:56.706Z,98704.06
2022-12-09T22:36:24.347Z,98704.91
2022-12-09T22:38:51.958Z,98710.66
2022-12-09T22:41:22.117Z,98711.38
2022-12-09T22:43:50.639Z,98710.81
2022-12-09T22:46:20.364Z,98705.69
2022-12-09T22:48:49.858Z,98707.47
2022-12-09T22:51:20.686Z,98705.28
2022-12-09T22:53:48.897Z,98717.09
2022-12-09T22:56:16.864Z,98716.69
2022-12-09T22:58:44.542Z,98715.56
2022-12-09T23:01:14.527Z,98723.78
2022-12-09T23:03:42.316Z,98714.19
2022-12-09T23:06:11.818Z,98715.78
2022-12-09T23:08:41.604Z,98711.59
2022-12-09T23:11:12.049Z,98708.72
2022-12-09T23:13:41.418Z,98710.44
2022-12-09T23:16:12.843Z,98716.91
2022-12-09T23:18:41.109Z,98711.75
2022-12-09T23:21:11.959Z,98714.88
2022-12-09T23:23:40.376Z,98724.63
2022-12-09T23:26:10.385Z,98715.28
2022-12-09T23:28:38.759Z,98721.22
2022-12-09T23:31:08.817Z,98723.50
2022-12-09T23:33:36.936Z,98715.53
2022-12-09T23:36:08.996Z,98723.56
2022-12-09T23:38:38.621Z,98722.00
2022-12-09T23:41:07.195Z,98722.81
2022-12-09T23:43:36.926Z,98725.34
2022-12-09T23:46:11.375Z,98721.19
2022-12-09T23:48:42.937Z,98725.19
2022-12-09T23:51:11.892Z,98717.63
2022-12-09T23:53:41.917Z,98717.78
2022-12-09T23:56:12.751Z,98721.66
2022-12-09T23:58:40.482Z,98717.50
